Latest Weather Observations for Sheoaks

IDV60901

Issued at 3:51 am EST Sunday 21 July 2019 (issued every 10 minutes, with the page automatically refreshed every 10 minutes)

About weather observations | Map of Melbourne area stations | Latest observations for Melbourne area | Other Formats
Station Details ID: 087168 Name: SHEOAKS Lat: -37.91 Lon: 144.13 Height: 236.7 m
Data from the previous 72 hours. | See also: Recent months at Sheoaks
Date/Time
EST
Temp
°C
App
Temp
°C
Dew
Point
°C
Rel
Hum
%
Delta-T
°C
Wind Press
QNH
hPa
Press
MSL
hPa
Rain since
9am
mm
Dir  Spd
km/h
Gust
km/h
Spd
kts
Gust
kts
21/03:30am 12.7 2.7 2.3 49 4.6 N 44 67 24 36 1005.4 1005.7 0.0
21/03:00am 12.9 4.2 2.2 48 4.7 N 37 56 20 30 1005.6 1005.9 0.0
21/02:30am 12.7 3.3 2.6 50 4.5 N 41 65 22 35 1005.5 1005.8 0.0
21/02:00am 12.9 3.1 2.5 49 4.6 NNW 43 70 23 38 1005.8 1006.1 0.0
21/01:30am 13.1 3.4 2.6 49 4.7 N 43 72 23 39 1006.0 1006.3 0.0
21/01:00am 13.1 3.4 2.6 49 4.7 N 43 65 23 35 1006.5 1006.8 0.0
21/12:40am 12.9 4.8 3.0 51 4.4 N 35 57 19 31 1006.2 1006.5 0.0
21/12:30am 12.9 4.4 3.0 51 4.4 N 37 52 20 28 1006.6 1007.0 0.0
21/12:01am 12.7 4.6 3.4 53 4.2 N 35 54 19 29 1007.6 1007.9 0.0
21/12:00am 12.7 4.6 3.1 52 4.3 N 35 52 19 28 1007.7 1008.0 0.0
 
Date/Time
EST
Temp
°C
App
Temp
°C
Dew
Point
°C
Rel
Hum
%
Delta-T
°C
Wind Press
QNH
hPa
Press
MSL
hPa
Rain since
9am
mm
Dir  Spd
km/h
Gust
km/h
Spd
kts
Gust
kts
20/11:30pm 13.1 3.5 3.5 52 4.4 N 43 63 23 34 1008.1 1008.4 0.0
20/11:00pm 12.9 3.8 3.8 54 4.2 N 41 61 22 33 1008.8 1009.1 0.0
20/10:31pm 12.9 4.5 3.8 54 4.2 N 37 59 20 32 1009.1 1009.4 0.0
20/10:30pm 12.8 4.5 4.0 55 4.0 N 37 56 20 30 1009.2 1009.5 0.0
20/10:10pm 12.6 5.2 4.1 56 3.9 N 32 56 17 30 1009.9 1010.2 0.0
20/10:00pm 12.4 6.2 4.4 58 3.7 N 26 39 14 21 1010.5 1010.9 0.0
20/09:30pm 12.1 6.4 4.8 61 3.4 N 24 37 13 20 1010.4 1010.8 0.0
20/09:00pm 12.1 6.8 5.0 62 3.3 N 22 35 12 19 1010.8 1011.2 0.0
20/08:30pm 12.4 6.0 5.1 61 3.4 N 28 41 15 22 1010.6 1011.0 0.0
20/08:00pm 12.2 5.9 5.6 64 3.1 N 28 41 15 22 1011.1 1011.5 0.0
20/07:30pm 12.5 6.6 5.7 63 3.2 N 26 37 14 20 1011.3 1011.7 0.0
20/07:11pm 12.4 6.1 5.8 64 3.1 N 28 50 15 27 1010.9 1011.3 0.0
20/07:00pm 12.1 6.2 5.7 65 3.0 N 26 44 14 24 1011.1 1011.5 0.0
20/06:30pm 12.2 6.3 5.6 64 3.1 N 26 44 14 24 1011.0 1011.4 0.0
20/06:00pm 12.6 6.6 5.5 62 3.4 N 26 39 14 21 1011.0 1011.4 0.0
20/05:30pm 12.9 5.1 5.1 59 3.7 N 35 56 19 30 1011.1 1011.5 0.0
20/05:21pm 13.2 6.0 5.1 58 3.8 N 32 54 17 29 1011.0 1011.4 0.0
20/05:00pm 13.3 6.5 5.2 58 3.8 N 30 44 16 24 1011.3 1011.7 0.0
20/04:46pm 13.5 7.0 4.9 56 4.0 N 28 48 15 26 1011.4 1011.8 0.0
20/04:30pm 13.9 8.2 5.0 55 4.2 N 24 37 13 20 1011.9 1012.2 0.0
20/04:00pm 14.2 9.5 5.3 55 4.2 N 19 30 10 16 1012.3 1012.6 0.0
20/03:30pm 14.4 7.6 5.0 53 4.5 N 30 43 16 23 1012.7 1013.0 0.0
20/03:00pm 14.5 7.3 4.8 52 4.6 N 32 50 17 27 1012.9 1013.2 0.0
20/02:45pm 14.6 8.0 4.0 49 4.9 N 28 48 15 26 1013.0 1013.3 0.0
20/02:30pm 14.7 8.6 4.7 51 4.7 N 26 46 14 25 1013.4 1013.7 0.0
20/02:00pm 14.6 8.1 4.6 51 4.7 NNW 28 50 15 27 1013.8 1014.2 0.0
20/01:53pm 14.6 8.1 4.6 51 4.7 N 28 50 15 27 1013.9 1014.3 0.0
20/01:30pm 14.5 8.8 4.8 52 4.6 NNW 24 48 13 26 1014.3 1014.7 0.0
20/01:00pm 14.5 9.7 5.6 55 4.3 NNW 20 33 11 18 1014.9 1015.3 0.0
20/12:30pm 14.4 10.0 6.5 59 3.9 NNW 19 33 10 18 1015.6 1016.0 0.0
20/12:00pm 13.5 7.7 6.1 61 3.6 NNW 26 43 14 23 1016.3 1016.6 0.0
20/11:30am 13.2 7.3 5.9 61 3.5 NNW 26 41 14 22 1016.9 1017.2 0.0
20/11:00am 12.9 7.9 6.3 64 3.2 NNW 22 35 12 19 1017.4 1017.8 0.0
20/10:30am 12.1 5.1 5.9 66 2.9 NNW 32 52 17 28 1017.3 1017.7 0.0
20/10:17am 12.3 5.7 5.9 65 3.0 NNW 30 50 16 27 1017.2 1017.5 0.0
20/10:00am 12.1 7.1 6.4 68 2.7 NNW 22 35 12 19 1017.3 1017.7 0.0
20/09:30am 11.6 6.6 6.3 70 2.5 NNW 22 35 12 19 1017.3 1017.7 0.0
20/09:00am 10.9 5.1 6.3 73 2.2 NNW 26 41 14 22 1017.4 1017.8 0.0
20/08:30am 10.1 4.7 6.3 77 1.8 N 24 39 13 21 1017.3 1017.7 0.0
20/08:00am 9.7 5.1 6.4 80 1.6 N 20 35 11 19 1017.4 1017.8 0.0
20/07:30am 9.8 5.3 6.3 79 1.6 NNW 19 32 10 17 1017.5 1017.9 0.0
20/07:00am 10.0 6.7 6.3 78 1.7 NNW 13 20 7 11 1017.5 1017.9 0.0
20/06:30am 10.1 5.6 6.8 80 1.6 N 20 30 11 16 1017.2 1017.5 0.0
20/06:00am 9.6 5.2 6.5 81 1.5 N 19 28 10 15 1017.1 1017.4 0.0
20/05:30am 9.7 5.1 6.6 81 1.5 NNW 20 35 11 19 1017.4 1017.8 0.0
20/05:00am 9.5 4.5 6.4 81 1.5 NNW 22 30 12 16 1017.6 1018.0 0.0
20/04:30am 9.5 4.1 6.2 80 1.5 NNW 24 41 13 22 1017.5 1017.9 0.0
20/04:00am 9.6 3.8 6.3 80 1.5 NNW 26 39 14 21 1017.5 1017.9 0.0
20/03:30am 9.7 4.3 6.2 79 1.6 NNW 24 39 13 21 1017.7 1018.1 0.0
20/03:00am 9.6 5.0 6.3 80 1.5 N 20 32 11 17 1018.1 1018.5 0.0
20/02:30am 9.4 4.7 6.1 80 1.5 NNW 20 30 11 16 1018.4 1018.8 0.0
20/02:00am 8.5 5.0 5.4 81 1.4 NNW 13 20 7 11 1018.8 1019.2 0.0
20/01:30am 8.2 3.9 5.1 81 1.4 NNW 17 22 9 12 1018.8 1019.2 0.0
20/01:00am 7.7 3.7 5.0 83 1.2 NNW 15 19 8 10 1019.0 1019.4 0.0
20/12:30am 7.5 3.9 4.8 83 1.2 NNW 13 19 7 10 1019.5 1019.9 0.0
20/12:00am 6.6 3.7 4.4 86 1.0 NNW 9 17 5 9 1019.7 1020.1 0.0
 
Date/Time
EST
Temp
°C
App
Temp
°C
Dew
Point
°C
Rel
Hum
%
Delta-T
°C
Wind Press
QNH
hPa
Press
MSL
hPa
Rain since
9am
mm
Dir  Spd
km/h
Gust
km/h
Spd
kts
Gust
kts
19/11:30pm 5.9 3.4 3.6 85 1.0 N 6 6 3 3 1020.0 1020.4 0.0
19/11:00pm 6.6 3.3 4.3 85 1.0 N 11 13 6 7 1020.1 1020.5 0.0
19/10:30pm 6.5 3.5 4.0 84 1.1 N 9 13 5 7 1020.5 1020.8 0.0
19/10:00pm 6.4 3.7 3.7 83 1.2 N 7 9 4 5 1020.5 1020.8 0.0
19/09:30pm 6.6 4.1 3.8 82 1.2 NNW 6 9 3 5 1020.1 1020.5 0.0
19/09:00pm 7.0 4.5 4.5 84 1.1 NNW 7 9 4 5 1020.6 1020.9 0.0
19/08:30pm 6.9 3.7 4.9 87 0.9 NW 11 13 6 7 1020.9 1021.3 0.0
19/08:00pm 5.4 2.6 3.4 87 0.8 NNW 7 9 4 5 1020.7 1021.0 0.0
19/07:30pm 5.8 3.3 3.5 85 1.0 NNW 6 6 3 3 1020.6 1020.9 0.0
19/07:00pm 6.7 4.2 3.7 81 1.3 N 6 6 3 3 1020.5 1020.8 0.0
19/06:30pm 8.3 6.2 3.9 74 1.9 N 4 6 2 3 1020.6 1020.9 0.0
19/06:00pm 9.3 6.7 4.1 70 2.3 N 7 11 4 6 1020.3 1020.7 0.0
19/05:30pm 10.0 7.4 4.4 68 2.5 NNW 7 9 4 5 1019.9 1020.3 0.0
19/05:00pm 11.4 9.4 4.4 62 3.2 NW 4 6 2 3 1019.7 1020.1 0.0
19/04:30pm 11.9 9.3 4.2 59 3.5 WNW 7 9 4 5 1019.6 1020.0 0.0
19/04:00pm 12.4 9.8 4.1 57 3.8 NW 7 13 4 7 1019.6 1020.0 0.0
19/03:30pm 12.4 9.9 4.6 59 3.6 NW 7 11 4 6 1019.5 1019.9 0.0
19/03:00pm 11.9 8.6 4.4 60 3.4 WNW 11 15 6 8 1019.6 1020.0 0.0
19/02:30pm 11.9 9.5 5.1 63 3.2 W 7 13 4 7 1019.5 1019.9 0.0
19/02:00pm 11.9 9.1 5.1 63 3.2 WNW 9 15 5 8 1019.6 1020.0 0.0
19/01:30pm 11.3 8.4 4.5 63 3.1 NW 9 15 5 8 1019.7 1020.1 0.0
19/01:00pm 11.7 8.8 4.9 63 3.1 NW 9 15 5 8 1019.9 1020.3 0.0
19/12:30pm 11.1 7.4 4.6 64 3.0 NW 13 19 7 10 1020.3 1020.7 0.0
19/12:00pm 10.7 7.8 4.6 66 2.8 WNW 9 13 5 7 1020.8 1021.2 0.0
19/11:30am 10.5 7.2 4.6 67 2.7 WNW 11 17 6 9 1021.1 1021.5 0.0
19/11:00am 10.8 8.5 5.6 70 2.4 WNW 7 13 4 7 1021.2 1021.6 0.0
19/10:30am 10.2 7.5 5.4 72 2.2 NW 9 17 5 9 1021.1 1021.5 0.0
19/10:00am 9.1 6.4 5.8 80 1.5 NW 9 13 5 7 1021.2 1021.6 0.0
19/09:30am 8.6 6.0 6.2 85 1.1 NW 9 13 5 7 1021.1 1021.5 0.0
19/09:00am 7.9 5.3 6.0 88 0.9 NNW 9 17 5 9 1020.8 1021.2 0.0
19/08:30am 6.7 3.9 5.2 90 0.7 NNW 9 15 5 8 1020.1 1020.5 0.0
19/08:00am 6.2 3.7 4.7 90 0.7 NW 7 11 4 6 1019.9 1020.3 0.0
19/07:30am 6.6 3.8 5.1 90 0.7 NW 9 13 5 7 1019.5 1019.9 0.0
19/07:00am 6.9 4.2 5.4 90 0.7 NW 9 13 5 7 1019.2 1019.6 0.0
19/06:30am 7.0 4.6 5.3 89 0.8 NNW 7 13 4 7 1018.7 1019.1 0.0
19/06:00am 7.6 4.9 5.7 88 0.9 WNW 9 13 5 7 1018.4 1018.8 0.0
19/05:30am 8.0 5.4 6.1 88 0.9 WNW 9 13 5 7 1018.0 1018.4 0.0
19/05:00am 8.4 5.1 6.4 87 0.9 WNW 13 17 7 9 1017.6 1018.0 0.0
19/04:30am 8.9 5.7 6.7 86 1.0 WNW 13 20 7 11 1017.5 1017.9 0.0
19/04:00am 9.2 6.1 7.2 87 1.0 W 13 22 7 12 1017.6 1018.0 0.0
19/03:30am 9.0 6.0 7.5 90 0.7 WNW 13 24 7 13 1017.3 1017.7 0.0
19/03:00am 9.3 6.0 7.9 91 0.7 WNW 15 24 8 13 1017.2 1017.5 0.0
19/02:30am 9.4 6.5 8.2 92 0.6 WNW 13 22 7 12 1017.3 1017.7 0.0
19/02:00am 9.5 5.8 8.1 91 0.7 WNW 17 28 9 15 1016.7 1017.0 0.0
19/01:30am 9.8 5.8 8.4 91 0.7 W 19 32 10 17 1016.4 1016.7 0.0
19/01:00am 9.8 5.2 8.1 89 0.8 WNW 22 35 12 19 1015.7 1016.1 0.0
19/12:30am 10.3 6.1 7.5 83 1.4 WNW 19 30 10 16 1015.4 1015.8 0.0
19/12:00am 10.5 5.7 7.2 80 1.6 NW 22 39 12 21 1014.8 1015.2 0.0
 
Date/Time
EST
Temp
°C
App
Temp
°C
Dew
Point
°C
Rel
Hum
%
Delta-T
°C
Wind Press
QNH
hPa
Press
MSL
hPa
Rain since
9am
mm
Dir  Spd
km/h
Gust
km/h
Spd
kts
Gust
kts
18/11:30pm 10.4 5.2 7.3 81 1.5 NW 24 37 13 20 1014.2 1014.6 0.0
18/11:00pm 10.5 4.8 6.8 78 1.8 NNW 26 39 14 21 1013.8 1014.2 0.0
18/10:30pm 10.7 5.4 6.8 77 1.9 NW 24 37 13 20 1014.0 1014.4 0.0
18/10:00pm 10.6 5.7 7.1 79 1.7 NNW 22 37 12 20 1013.9 1014.3 0.0
18/09:30pm 10.2 5.0 7.1 81 1.5 NNW 24 44 13 24 1013.5 1013.8 0.0
18/09:00pm 9.9 4.9 6.6 80 1.6 NNW 22 35 12 19 1013.9 1014.3 0.0
18/08:30pm 10.0 4.6 6.5 79 1.7 NW 24 39 13 21 1014.0 1014.4 0.0
18/08:00pm 10.1 4.3 6.3 77 1.8 NNW 26 41 14 22 1013.9 1014.3 0.0
18/07:30pm 10.2 4.7 6.0 75 2.0 NW 24 46 13 25 1014.0 1014.4 0.0
18/07:21pm 10.4 4.2 6.0 74 2.1 NW 28 46 15 25 1013.7 1014.1 0.0
18/07:00pm 10.4 4.9 5.8 73 2.1 NNW 24 39 13 21 1013.8 1014.2 0.0
18/06:30pm 10.3 5.5 5.5 72 2.2 NNW 20 41 11 22 1013.9 1014.3 0.0
18/06:00pm 10.4 5.7 5.0 69 2.5 NNW 19 32 10 17 1014.0 1014.4 0.0
18/05:30pm 10.6 5.8 4.9 68 2.6 NNW 19 35 10 19 1014.2 1014.6 0.0
18/05:00pm 10.8 5.8 4.7 66 2.8 NNW 20 33 11 18 1014.3 1014.7 0.0
18/04:30pm 11.3 6.2 4.1 61 3.3 NNW 20 32 11 17 1014.1 1014.5 0.0
18/04:00pm 12.1 7.0 3.3 55 3.9 NNW 19 35 10 19 1014.2 1014.6 0.0
18/03:30pm 13.0 8.1 3.9 54 4.2 NW 19 32 10 17 1014.4 1014.8 0.0
18/03:00pm 12.2 7.2 3.4 55 4.0 NW 19 28 10 15 1014.2 1014.6 0.0
18/02:30pm 13.3 8.0 3.1 50 4.6 NW 20 33 11 18 1014.6 1015.0 0.0
18/02:00pm 12.7 8.5 3.6 54 4.1 NW 15 26 8 14 1014.8 1015.2 0.0
18/01:30pm 12.2 7.2 4.4 59 3.6 NNW 20 30 11 16 1014.8 1015.2 0.0
18/01:00pm 11.9 7.8 4.6 61 3.4 NNW 15 22 8 12 1015.4 1015.8 0.0
18/12:30pm 11.1 7.0 4.3 63 3.1 NNW 15 22 8 12 1016.1 1016.4 0.0
18/12:00pm 10.3 6.2 4.2 66 2.7 NW 15 22 8 12 1016.8 1017.1 0.0
18/11:30am 9.5 4.6 4.1 69 2.4 NW 19 32 10 17 1017.4 1017.8 0.0
18/11:00am 9.1 4.2 4.3 72 2.1 NW 19 30 10 16 1017.8 1018.2 0.0
18/10:30am 9.4 5.4 4.8 73 2.1 WNW 15 24 8 13 1018.2 1018.6 0.0
18/10:00am 8.7 4.3 4.7 76 1.8 WNW 17 24 9 13 1018.3 1018.7 0.0
18/09:30am 8.3 5.3 5.8 84 1.1 NW 11 15 6 8 1018.2 1018.6 0.0
18/09:00am 7.7 4.6 5.5 86 1.0 NW 11 20 6 11 1017.8 1018.2 1.8
18/08:30am 7.4 4.7 5.5 88 0.9 NW 9 17 5 9 1017.8 1018.2 1.8
18/08:00am 7.2 4.5 5.7 90 0.7 NW 9 15 5 8 1017.5 1017.9 1.8
18/07:30am 6.8 4.4 5.3 90 0.7 NNW 7 13 4 7 1017.4 1017.8 1.8
18/07:00am 6.5 4.1 5.1 91 0.6 NNW 7 11 4 6 1017.4 1017.8 1.8
18/06:30am 5.8 3.2 4.3 90 0.7 NNW 7 9 4 5 1017.2 1017.5 1.8
18/06:00am 5.6 2.6 3.9 89 0.7 NW 9 11 5 6 1016.6 1016.9 1.8
18/05:30am 6.2 3.6 4.4 88 0.8 NW 7 9 4 5 1016.5 1016.8 1.8
18/05:00am 6.8 3.9 4.8 87 0.9 NW 9 13 5 7 1016.8 1017.1 1.8
18/04:30am 7.2 4.0 5.2 87 0.9 WNW 11 17 6 9 1016.6 1016.9 1.8
18/04:00am 7.3 4.5 5.3 87 0.9 WNW 9 17 5 9 1016.5 1016.8 1.8

Latest Capital City Observations: Canberra | Sydney | Melbourne | Brisbane | Adelaide | Perth | Hobart | Darwin

Other formats

Comma delimited format used in spreadsheet applications
http://www.bom.gov.au/fwo/IDV60901/IDV60901.94863.axf

JavaScript Object Notation format (JSON) in row-major order
http://www.bom.gov.au/fwo/IDV60901/IDV60901.94863.json

Data quality

Most of these data are generated automatically and are frequently updated. Quality checks on data are not normally performed. It is possible for incorrect values to appear. Refer to information at About Latest Weather Observations and please check the disclaimer before using these data.